Time;durP1;ratioP1;P1;durP2;ratioP2;P2;SDS_P1;SDS_P2;PMS_P1;PMS_P2;Temp;Humidity;BMP_temperature;BMP_pressure;BME280_temperature;BME280_humidity;BME280_pressure;Samples;Min_cycle;Max_cycle;Signal;HPM_P1;HPM_P2
2024/01/28 00:02:13;;;;;;;10.60;6.80;;;;;;;4.43;46.35;101184.72;10416340;28;20227;-38
2024/01/28 00:07:15;;;;;;;8.43;6.03;;;;;;;4.10;46.19;101261.13;10422811;28;20715;-38
2024/01/28 00:12:16;;;;;;;9.30;6.47;;;;;;;4.10;46.11;101255.84;10420673;28;20239;-36
2024/01/28 00:17:18;;;;;;;10.07;6.37;;;;;;;3.98;46.43;101286.66;10439264;28;20231;-37
2024/01/28 00:22:20;;;;;;;8.97;6.33;;;;;;;5.56;44.26;101094.97;10429816;28;20275;-36
2024/01/28 00:27:22;;;;;;;8.53;6.23;;;;;;;5.79;43.53;101242.81;10430481;28;20618;-37
2024/01/28 00:32:24;;;;;;;9.73;6.33;;;;;;;3.22;47.50;101370.19;10438272;28;20290;-38
2024/01/28 00:37:25;;;;;;;9.53;6.23;;;;;;;3.01;48.48;101319.50;10438066;28;20235;-37
2024/01/28 00:42:27;;;;;;;11.77;7.70;;;;;;;3.15;48.36;101249.00;10437352;28;20236;-37
2024/01/28 00:47:29;;;;;;;9.03;6.57;;;;;;;2.92;47.92;101328.00;10440387;28;20239;-37
2024/01/28 00:52:31;;;;;;;10.83;7.03;;;;;;;3.00;48.26;101229.66;10420858;28;20290;-36
2024/01/28 00:57:32;;;;;;;7.10;6.07;;;;;;;3.06;47.72;101250.44;10439157;28;20243;-36
2024/01/28 01:02:34;;;;;;;8.23;6.33;;;;;;;3.15;48.08;101177.56;10439286;28;20741;-37
2024/01/28 01:07:36;;;;;;;11.57;7.30;;;;;;;3.38;47.24;101203.34;10437458;28;20242;-36
2024/01/28 01:12:37;;;;;;;9.67;6.03;;;;;;;3.76;46.69;101099.28;10440958;28;20238;-36
2024/01/28 01:17:41;;;;;;;7.77;6.00;;;;;;;4.99;44.60;101128.50;10436948;28;20265;-36
2024/01/28 01:22:44;;;;;;;8.87;5.97;;;;;;;5.66;43.39;101130.50;10437761;28;20235;-37
2024/01/28 01:27:48;;;;;;;11.47;7.00;;;;;;;4.23;44.99;101302.69;10434550;28;20237;-37
2024/01/28 01:32:50;;;;;;;8.97;6.77;;;;;;;5.08;44.11;101160.50;10410926;28;20321;-38
2024/01/28 01:37:54;;;;;;;9.77;6.70;;;;;;;3.47;46.65;101291.88;10434788;28;20713;-37
2024/01/28 01:42:56;;;;;;;7.87;6.70;;;;;;;2.40;48.44;101391.97;10434562;28;20212;-37
2024/01/28 01:47:58;;;;;;;9.40;6.50;;;;;;;3.02;47.78;101223.31;10434359;28;20249;-38
2024/01/28 01:53:01;;;;;;;9.23;6.93;;;;;;;3.77;46.53;101167.16;10427784;28;20581;-37
2024/01/28 01:58:04;;;;;;;12.37;7.47;;;;;;;3.21;47.28;101193.03;10421561;28;20957;-37
2024/01/28 02:03:06;;;;;;;7.40;6.17;;;;;;;2.78;47.81;101280.41;10434245;28;20699;-38
2024/01/28 02:08:08;;;;;;;10.13;6.90;;;;;;;2.70;47.78;101284.41;10419901;28;20231;-37
2024/01/28 02:13:10;;;;;;;11.77;7.63;;;;;;;2.47;48.19;101321.97;10418990;28;20309;-38
2024/01/28 02:18:11;;;;;;;11.13;6.57;;;;;;;2.56;48.91;101198.97;10437402;28;20302;-37
2024/01/28 02:23:23;;;;;;;10.13;6.67;;;;;;;3.08;47.67;101148.03;10434037;28;20329;-38
2024/01/28 02:28:24;;;;;;;8.90;7.00;;;;;;;3.00;47.64;101158.28;10433435;28;20240;-39
2024/01/28 02:33:26;;;;;;;8.00;6.93;;;;;;;2.52;48.13;101277.59;10431137;28;20263;-38
2024/01/28 02:38:28;;;;;;;9.13;6.60;;;;;;;3.60;46.44;101088.09;10434937;28;20644;-39
2024/01/28 02:43:30;;;;;;;9.83;7.27;;;;;;;2.75;47.42;101239.13;10432229;28;20290;-38
2024/01/28 02:48:32;;;;;;;8.00;6.37;;;;;;;2.16;48.94;101260.41;10435277;28;20246;-39
2024/01/28 02:53:34;;;;;;;10.47;7.17;;;;;;;3.87;46.35;101069.41;10425392;28;20210;-38
2024/01/28 02:58:36;;;;;;;12.10;7.10;;;;;;;4.25;45.63;101079.03;10428709;28;20236;-38
2024/01/28 03:03:37;;;;;;;15.73;8.23;;;;;;;3.33;46.28;101223.09;10426919;28;20246;-38
2024/01/28 03:08:39;;;;;;;9.47;6.40;;;;;;;3.65;46.12;101123.84;10427990;28;20242;-38
2024/01/28 03:13:41;;;;;;;8.10;6.63;;;;;;;3.68;46.59;101100.75;10435275;28;20230;-37
2024/01/28 03:18:43;;;;;;;9.17;6.57;;;;;;;4.16;44.94;101151.25;10432689;28;20307;-37
2024/01/28 03:23:44;;;;;;;10.47;7.27;;;;;;;2.65;46.81;101386.91;10431415;28;20320;-37
2024/01/28 03:28:46;;;;;;;11.23;7.37;;;;;;;2.97;46.94;101307.41;10432067;28;20240;-37
2024/01/28 03:33:48;;;;;;;9.43;6.60;;;;;;;3.42;46.80;101148.41;10431779;28;20257;-37
2024/01/28 03:38:50;;;;;;;10.83;7.30;;;;;;;3.00;48.31;101131.81;10433125;28;20643;-36
2024/01/28 03:43:52;;;;;;;9.97;7.10;;;;;;;2.16;48.73;101323.78;10427557;28;20228;-36
2024/01/28 03:48:53;;;;;;;10.23;7.40;;;;;;;1.82;49.18;101354.81;10439592;28;20234;-37
2024/01/28 03:53:55;;;;;;;10.07;6.57;;;;;;;1.88;49.33;101290.28;10439255;28;20257;-36
2024/01/28 03:58:57;;;;;;;10.63;6.93;;;;;;;2.54;48.37;101130.38;10437981;28;20350;-36
2024/01/28 04:03:59;;;;;;;8.77;6.03;;;;;;;2.00;49.29;101239.38;10439949;28;20241;-36
2024/01/28 04:09:01;;;;;;;10.87;6.90;;;;;;;2.51;48.06;101159.63;10442307;28;20301;-36
2024/01/28 04:14:02;;;;;;;10.40;6.87;;;;;;;2.32;48.55;101184.56;10443092;28;20280;-38
2024/01/28 04:19:04;;;;;;;9.97;7.17;;;;;;;2.50;47.87;101169.34;10439159;28;20230;-38
2024/01/28 04:24:07;;;;;;;11.13;6.73;;;;;;;4.00;45.46;101093.19;10436278;28;20796;-37
2024/01/28 04:29:08;;;;;;;10.20;6.90;;;;;;;3.35;46.38;101189.47;10439687;28;20250;-37
2024/01/28 04:34:10;;;;;;;12.93;7.20;;;;;;;2.73;47.30;101228.66;10436286;28;20233;-37
2024/01/28 04:39:15;;;;;;;11.10;7.33;;;;;;;3.04;47.03;101142.09;10435263;28;20225;-36
2024/01/28 04:44:19;;;;;;;9.40;7.90;;;;;;;2.94;47.02;101169.25;10436826;28;20590;-37
2024/01/28 04:49:21;;;;;;;14.00;8.43;;;;;;;3.54;45.39;101167.91;10436792;28;20292;-37
2024/01/28 04:54:23;;;;;;;10.97;8.13;;;;;;;4.11;44.77;101130.38;10462831;22;20249;-36
2024/01/28 04:59:25;;;;;;;13.07;7.73;;;;;;;4.49;44.34;101118.00;10439201;28;20242;-36
2024/01/28 05:04:27;;;;;;;10.43;7.17;;;;;;;4.09;44.83;101179.13;10447880;28;20270;-35
2024/01/28 05:09:28;;;;;;;11.13;7.67;;;;;;;3.59;45.62;101193.09;10451585;28;21583;-35
2024/01/28 05:14:30;;;;;;;9.37;7.53;;;;;;;4.22;44.90;101105.75;10442680;28;20342;-35
2024/01/28 05:19:32;;;;;;;10.17;7.90;;;;;;;2.93;46.08;101374.66;10445511;28;20206;-36
2024/01/28 05:24:34;;;;;;;11.57;8.00;;;;;;;4.77;44.46;101026.66;10454351;28;20248;-35
2024/01/28 05:29:37;;;;;;;11.50;7.70;;;;;;;3.26;45.65;101296.75;10452093;28;20236;-35
2024/01/28 05:34:39;;;;;;;10.17;8.63;;;;;;;2.50;47.45;101232.78;10443967;28;20353;-35
2024/01/28 05:39:41;;;;;;;12.13;8.57;;;;;;;1.73;48.53;101286.75;10428437;28;20245;-35
2024/01/28 05:44:43;;;;;;;13.40;8.00;;;;;;;1.40;49.18;101362.44;10441325;28;20329;-35
2024/01/28 05:49:44;;;;;;;12.27;8.30;;;;;;;1.21;49.82;101280.00;10440292;28;20280;-35
2024/01/28 05:54:46;;;;;;;10.83;7.47;;;;;;;2.20;48.26;101084.97;10443159;28;20261;-35
2024/01/28 05:59:49;;;;;;;10.30;7.37;;;;;;;2.28;47.49;101211.25;10425158;28;20234;-35
2024/01/28 06:04:54;;;;;;;12.93;7.97;;;;;;;1.50;48.81;101285.44;10440064;28;20256;-35
2024/01/28 06:09:56;;;;;;;11.47;7.73;;;;;;;1.32;49.53;101275.00;10440794;28;20286;-35
2024/01/28 06:15:04;;;;;;;13.00;7.90;;;;;;;1.83;48.46;101160.31;10435421;28;20234;-35
2024/01/28 06:20:07;;;;;;;11.87;9.37;;;;;;;4.03;45.64;100952.59;10441408;28;20653;-35
2024/01/28 06:25:09;;;;;;;11.57;8.20;;;;;;;2.24;46.88;101294.28;10437636;28;20762;-35
2024/01/28 06:30:12;;;;;;;11.40;7.40;;;;;;;2.21;48.45;101122.78;10443700;28;20257;-35
2024/01/28 06:35:13;;;;;;;10.17;7.30;;;;;;;2.66;47.59;101091.72;10437676;28;20248;-35
2024/01/28 06:40:15;;;;;;;12.57;8.53;;;;;;;1.99;47.77;101229.75;10438047;28;20226;-35
2024/01/28 06:45:17;;;;;;;10.30;8.23;;;;;;;1.42;49.19;101256.84;10436052;28;20233;-35
2024/01/28 06:50:19;;;;;;;10.17;7.60;;;;;;;1.62;49.01;101184.44;10438675;28;20593;-35
2024/01/28 06:55:21;;;;;;;11.40;8.17;;;;;;;2.22;47.64;101114.78;10436899;28;20336;-35
2024/01/28 07:00:22;;;;;;;9.57;8.30;;;;;;;2.30;47.71;101130.16;10438313;28;20380;-35
2024/01/28 07:05:25;;;;;;;11.77;7.70;;;;;;;1.08;49.74;101227.09;10436669;28;20732;-35
2024/01/28 07:10:26;;;;;;;13.27;7.10;;;;;;;2.14;48.05;101069.50;10440123;28;20225;-35
2024/01/28 07:15:30;;;;;;;10.97;8.23;;;;;;;1.63;49.21;101136.00;10422801;28;20317;-35
2024/01/28 07:20:32;;;;;;;9.20;7.33;;;;;;;1.89;48.39;101134.41;10438765;28;20461;-35
2024/01/28 07:25:34;;;;;;;10.97;8.07;;;;;;;2.79;47.59;100988.63;10434591;28;20244;-35
2024/01/28 07:30:35;;;;;;;12.33;7.20;;;;;;;1.12;48.84;101349.06;10447866;28;20233;-34
2024/01/28 07:35:37;;;;;;;11.17;7.67;;;;;;;1.72;48.72;101174.19;10428929;28;20377;-35
2024/01/28 07:40:39;;;;;;;35.23;20.53;;;;;;;1.92;48.41;101163.25;10448934;28;20236;-35
2024/01/28 07:45:42;;;;;;;142.70;52.67;;;;;;;1.95;48.12;101186.84;10451238;28;20237;-34
2024/01/28 07:50:44;;;;;;;15.57;12.13;;;;;;;1.69;49.23;101148.84;10441417;28;20738;-35
2024/01/28 07:55:45;;;;;;;15.73;9.40;;;;;;;2.26;48.38;101094.28;10443847;28;20611;-35
2024/01/28 08:00:47;;;;;;;13.77;7.73;;;;;;;1.59;49.71;101179.34;10445948;28;20381;-34
2024/01/28 08:05:49;;;;;;;13.17;8.60;;;;;;;2.28;48.70;101082.69;10446058;28;20235;-35
2024/01/28 08:10:51;;;;;;;14.27;8.37;;;;;;;2.19;48.53;101116.75;10443685;28;20740;-35
2024/01/28 08:16:01;;;;;;;13.77;7.37;;;;;;;2.29;48.59;101094.94;10447098;28;20233;-35
2024/01/28 08:21:03;;;;;;;10.53;7.70;;;;;;;1.65;49.75;101234.41;10451868;28;20336;-35
2024/01/28 08:26:05;;;;;;;12.00;7.67;;;;;;;4.13;46.51;101008.41;10426157;28;20230;-35
2024/01/28 08:31:07;;;;;;;13.80;7.30;;;;;;;3.24;47.25;101145.19;10446271;28;20232;-35
2024/01/28 08:36:09;;;;;;;12.33;8.57;;;;;;;3.65;46.42;101197.16;10442840;28;20234;-35
2024/01/28 08:41:11;;;;;;;12.93;7.73;;;;;;;4.51;45.47;101110.81;10447316;28;20237;-35
2024/01/28 08:46:13;;;;;;;10.03;7.83;;;;;;;4.75;44.85;101209.75;10444737;28;20715;-35
2024/01/28 08:51:14;;;;;;;10.77;8.23;;;;;;;4.10;45.93;101266.44;10448705;28;20360;-35
2024/01/28 08:56:16;;;;;;;13.77;8.67;;;;;;;3.58;46.11;101407.63;10424282;28;20342;-35
2024/01/28 09:01:18;;;;;;;14.07;8.27;;;;;;;4.83;44.98;101174.72;10431581;28;20241;-35
2024/01/28 09:06:20;;;;;;;11.77;9.53;;;;;;;6.32;43.28;101157.16;10434722;28;20231;-35
2024/01/28 09:11:22;;;;;;;13.90;8.73;;;;;;;6.16;42.96;101261.22;10442833;28;20241;-35
2024/01/28 09:16:23;;;;;;;11.40;7.87;;;;;;;6.37;42.95;101213.47;10419646;28;20818;-35
2024/01/28 09:21:25;;;;;;;16.90;8.30;;;;;;;6.66;42.69;101275.97;10438953;28;20235;-35
2024/01/28 09:26:27;;;;;;;13.50;9.43;;;;;;;6.92;43.03;101199.38;10442468;28;20347;-35
2024/01/28 09:31:29;;;;;;;13.30;10.07;;;;;;;6.43;43.15;101369.91;10438748;28;20253;-35
2024/01/28 09:36:31;;;;;;;8.80;7.40;;;;;;;6.87;42.97;101254.78;10441410;28;20239;-35
2024/01/28 09:41:43;;;;;;;10.00;7.67;;;;;;;6.76;42.93;101324.84;10440371;28;20301;-35
2024/01/28 09:46:45;;;;;;;11.60;7.83;;;;;;;6.71;43.00;101303.88;10433223;28;20344;-35
2024/01/28 09:51:47;;;;;;;10.13;6.63;;;;;;;6.55;42.60;101356.59;10437995;28;20232;-35
2024/01/28 09:56:50;;;;;;;9.03;7.43;;;;;;;6.80;42.75;101380.38;10435929;28;20271;-35
2024/01/28 10:01:52;;;;;;;14.37;8.30;;;;;;;6.93;42.66;101401.53;10437564;28;20264;-35
2024/01/28 10:07:01;;;;;;;9.40;6.63;;;;;;;6.98;43.76;101266.25;10439696;28;20242;-36
2024/01/28 10:12:03;;;;;;;10.67;7.20;;;;;;;7.17;43.12;101222.16;10441383;28;20252;-36
2024/01/28 10:17:05;;;;;;;13.50;7.93;;;;;;;6.28;44.48;101348.94;10443339;28;20236;-35
2024/01/28 10:22:07;;;;;;;10.13;7.57;;;;;;;6.74;43.52;101332.09;10439050;28;20812;-35
2024/01/28 10:27:15;;;;;;;9.77;6.57;;;;;;;8.33;41.91;101159.06;10431443;28;20242;-35
2024/01/28 10:32:17;;;;;;;10.37;6.90;;;;;;;4.46;46.14;101434.53;10415439;28;20377;-35
2024/01/28 10:37:20;;;;;;;22.73;15.50;;;;;;;6.25;45.18;101151.50;10435423;28;20232;-35
2024/01/28 10:42:26;;;;;;;40.03;35.93;;;;;;;5.78;45.91;101148.13;10438409;28;20246;-35
2024/01/28 10:47:31;;;;;;;12.53;11.07;;;;;;;7.95;42.08;101336.53;10437587;28;20253;-35
2024/01/28 10:52:33;;;;;;;16.30;11.80;;;;;;;6.53;44.63;101221.09;10430805;28;20247;-35
2024/01/28 10:57:39;;;;;;;13.37;9.83;;;;;;;7.15;43.32;101290.66;10438759;28;20436;-35
2024/01/28 11:06:26;;;;;;;11.43;8.63;;;;;;;3.35;50.48;101165.66;10486586;27;20317;-65
2024/01/28 11:11:27;;;;;;;10.70;8.33;;;;;;;3.15;50.02;101271.00;10458835;28;20243;-67
2024/01/28 11:16:30;;;;;;;11.73;7.83;;;;;;;4.12;49.82;101046.44;10430339;28;20235;-65
2024/01/28 11:21:35;;;;;;;13.57;7.73;;;;;;;3.97;49.31;101189.63;10428775;28;20241;-65
2024/01/28 11:26:38;;;;;;;10.57;7.33;;;;;;;4.90;48.19;101031.88;10460263;28;20801;-65
2024/01/28 11:31:45;;;;;;;9.97;6.63;;;;;;;4.13;49.14;101147.00;10434417;28;20299;-65
2024/01/28 11:36:53;;;;;;;11.53;6.70;;;;;;;5.81;46.42;101092.09;10423750;28;20274;-65
2024/01/28 11:41:55;;;;;;;11.13;7.00;;;;;;;4.46;48.39;101163.28;10427303;28;20239;-64
2024/01/28 11:46:57;;;;;;;24.10;14.70;;;;;;;4.48;48.49;101156.91;10422663;28;20232;-65
2024/01/28 11:51:59;;;;;;;10.63;7.17;;;;;;;4.31;48.54;101208.47;10430627;28;20232;-65
2024/01/28 11:57:01;;;;;;;11.23;7.90;;;;;;;4.88;47.20;101233.59;10425497;28;20705;-65
2024/01/28 12:02:03;;;;;;;32.87;29.57;;;;;;;5.63;46.83;101101.50;10406559;28;20621;-64
2024/01/28 12:07:05;;;;;;;11.90;8.07;;;;;;;5.34;46.81;101157.69;10458603;28;20715;-65
2024/01/28 12:12:07;;;;;;;10.30;6.97;;;;;;;5.12;46.85;101230.09;10464033;28;20241;-65
2024/01/28 12:17:09;;;;;;;8.37;6.93;;;;;;;6.22;46.36;101105.72;10440811;28;20259;-66
2024/01/28 12:22:14;;;;;;;11.07;7.70;;;;;;;6.32;46.75;101089.88;10437521;28;20263;-67
2024/01/28 12:27:16;;;;;;;10.83;7.53;;;;;;;7.10;44.97;101096.72;10436352;28;20227;-65
2024/01/28 12:32:18;;;;;;;8.40;6.53;;;;;;;7.31;44.30;101120.69;10434834;28;20714;-65
2024/01/28 12:37:19;;;;;;;10.27;6.97;;;;;;;7.71;43.80;101121.75;10399064;28;20232;-65
2024/01/28 12:42:25;;;;;;;8.63;6.77;;;;;;;7.92;43.02;101145.72;10393682;28;20232;-64
2024/01/28 12:47:27;;;;;;;8.43;5.97;;;;;;;6.23;45.04;101219.06;10393043;28;20522;-65
2024/01/28 12:52:29;;;;;;;10.33;6.47;;;;;;;5.76;46.10;101195.22;10389909;28;20239;-65
2024/01/28 12:57:31;;;;;;;10.53;6.57;;;;;;;7.30;43.99;101136.78;10397251;28;20237;-65
2024/01/28 13:02:33;;;;;;;8.47;5.80;;;;;;;6.09;45.60;101224.59;10433665;28;20262;-66
2024/01/28 13:07:35;;;;;;;10.70;5.93;;;;;;;7.95;43.34;101052.19;10434817;28;20236;-65
2024/01/28 13:12:41;;;;;;;10.23;6.40;;;;;;;7.17;43.85;101121.00;10391460;28;20310;-66
2024/01/28 13:17:43;;;;;;;7.87;6.70;;;;;;;7.69;43.02;101108.53;10387161;28;20231;-65
2024/01/28 13:22:45;;;;;;;8.87;6.30;;;;;;;9.01;41.75;101025.69;10383730;28;20236;-65
2024/01/28 13:27:47;;;;;;;6.17;5.27;;;;;;;6.10;45.57;101208.53;10436142;28;20235;-66
2024/01/28 13:32:49;;;;;;;6.37;5.17;;;;;;;6.58;44.89;101167.50;10392262;28;20251;-65
2024/01/28 13:37:51;;;;;;;5.40;4.77;;;;;;;7.30;43.38;101055.09;10391290;28;20572;-66
2024/01/28 13:42:52;;;;;;;5.73;4.83;;;;;;;7.43;42.46;101205.84;10391561;28;20741;-67
2024/01/28 13:47:54;;;;;;;7.63;5.67;;;;;;;8.34;42.24;101086.91;10431700;28;20208;-67
2024/01/28 13:52:57;;;;;;;9.43;5.50;;;;;;;8.53;42.60;101053.25;10432720;28;20221;-66
2024/01/28 13:57:59;;;;;;;6.27;5.67;;;;;;;7.20;43.53;101245.88;10433477;28;20282;-67
2024/01/28 14:03:01;;;;;;;24.60;21.10;;;;;;;8.18;42.12;101219.91;10431457;28;20282;-68
2024/01/28 14:08:03;;;;;;;8.30;5.50;;;;;;;8.90;41.44;101113.97;10428448;28;20725;-67
2024/01/28 14:13:05;;;;;;;7.67;5.40;;;;;;;9.51;40.94;101115.41;10391451;28;20223;-65
2024/01/28 14:18:07;;;;;;;9.07;6.03;;;;;;;8.85;42.11;101127.69;10391629;28;20240;-66
2024/01/28 14:23:09;;;;;;;8.33;6.83;;;;;;;8.95;42.07;101045.78;10392552;28;20284;-66
2024/01/28 14:28:11;;;;;;;6.00;5.17;;;;;;;8.47;42.76;101119.50;10429422;28;20550;-66
2024/01/28 14:33:12;;;;;;;8.30;5.90;;;;;;;8.41;41.75;101220.59;10431360;28;20243;-68
2024/01/28 14:38:14;;;;;;;9.80;5.73;;;;;;;8.31;42.50;101182.38;10425355;28;20239;-67
2024/01/28 14:43:16;;;;;;;12.57;8.37;;;;;;;9.29;40.70;101181.53;10387249;28;20308;-67
2024/01/28 14:48:18;;;;;;;9.23;6.27;;;;;;;8.16;43.11;101172.06;10390667;28;20326;-66
2024/01/28 14:53:26;;;;;;;11.13;8.67;;;;;;;9.16;41.50;101095.50;10388257;28;20236;-67
2024/01/28 14:58:27;;;;;;;9.10;5.63;;;;;;;8.48;42.25;101232.41;10388954;28;20261;-65
2024/01/28 15:03:29;;;;;;;8.87;6.07;;;;;;;9.58;41.31;101044.34;10397031;28;20288;-65
2024/01/28 15:08:31;;;;;;;8.07;6.50;;;;;;;9.39;41.60;101104.03;10432015;28;20322;-67
2024/01/28 15:13:32;;;;;;;10.20;6.80;;;;;;;9.30;41.49;101102.22;10425399;28;20241;-66
2024/01/28 15:18:34;;;;;;;8.47;5.83;;;;;;;9.60;40.82;101085.13;10383852;28;20321;-67
2024/01/28 15:23:38;;;;;;;9.17;5.77;;;;;;;9.34;41.52;101099.13;10388700;28;20323;-67
2024/01/28 15:28:39;;;;;;;8.63;6.47;;;;;;;9.44;41.46;101071.56;10398993;28;20244;-69
2024/01/28 15:33:41;;;;;;;8.40;5.97;;;;;;;9.14;42.03;101042.22;10425682;28;20242;-67
2024/01/28 15:38:43;;;;;;;12.93;8.10;;;;;;;9.01;41.62;101173.41;10416208;28;20662;-64
2024/01/28 15:43:46;;;;;;;7.40;6.10;;;;;;;8.93;41.99;101151.06;10387975;28;20268;-67
2024/01/28 15:48:48;;;;;;;9.13;6.80;;;;;;;10.10;40.52;100996.53;10395656;28;20242;-66
2024/01/28 15:53:50;;;;;;;10.33;7.30;;;;;;;9.89;40.48;101079.69;10453220;28;20236;-71
2024/01/28 15:58:52;;;;;;;13.40;8.17;;;;;;;9.63;40.95;101134.78;10441102;28;20248;-69
2024/01/28 16:03:53;;;;;;;8.40;6.50;;;;;;;9.07;41.66;101165.81;10421333;28;20228;-67
2024/01/28 16:08:55;;;;;;;10.43;6.67;;;;;;;8.00;42.79;101254.34;10428622;28;20235;-65
2024/01/28 16:13:57;;;;;;;9.37;6.73;;;;;;;8.39;42.81;101108.69;10376698;28;20229;-64
2024/01/28 16:18:59;;;;;;;10.23;7.33;;;;;;;8.22;42.94;101142.19;10406073;28;20233;-67
2024/01/28 16:24:02;;;;;;;10.37;7.33;;;;;;;8.22;42.82;101115.53;10438939;28;20317;-67
2024/01/28 16:29:04;;;;;;;8.37;5.97;;;;;;;8.34;43.00;101073.59;10428060;28;20891;-66
2024/01/28 16:34:07;;;;;;;7.80;5.37;;;;;;;8.56;42.39;101109.81;10398131;28;20318;-67
2024/01/28 16:39:09;;;;;;;8.30;6.60;;;;;;;8.01;43.46;101080.94;10405129;28;20612;-67
2024/01/28 16:44:10;;;;;;;7.77;5.40;;;;;;;8.09;43.53;101014.44;10437084;28;20326;-67
2024/01/28 16:49:12;;;;;;;6.57;5.63;;;;;;;9.14;41.85;100951.44;10425693;28;20728;-67
2024/01/28 16:54:14;;;;;;;6.93;5.50;;;;;;;7.44;44.63;101032.59;10396331;28;20630;-67
2024/01/28 16:59:16;;;;;;;6.43;5.63;;;;;;;6.92;45.57;101013.97;10395203;28;21526;-65
2024/01/28 17:04:17;;;;;;;11.37;6.97;;;;;;;6.50;45.62;101116.75;10374149;28;20254;-65
2024/01/28 17:09:19;;;;;;;11.23;7.73;;;;;;;6.99;45.65;100964.56;10404946;28;20277;-66
2024/01/28 17:14:22;;;;;;;11.17;7.17;;;;;;;6.12;46.75;101040.97;10433074;28;20236;-63
2024/01/28 17:19:24;;;;;;;10.67;7.70;;;;;;;5.96;46.91;101005.03;10418858;28;20233;-64
2024/01/28 17:24:25;;;;;;;10.97;7.10;;;;;;;5.79;47.14;101024.97;10392419;28;20236;-63
2024/01/28 17:29:28;;;;;;;7.77;6.87;;;;;;;5.80;47.02;100968.22;10390715;28;20236;-63
2024/01/28 17:34:30;;;;;;;10.80;7.70;;;;;;;5.68;46.97;101017.00;10429816;28;20235;-63
2024/01/28 17:39:32;;;;;;;9.20;8.03;;;;;;;5.61;47.32;100978.63;10389129;28;20244;-64
2024/01/28 17:44:34;;;;;;;11.10;8.10;;;;;;;6.07;46.56;100945.66;10405901;28;20242;-69
2024/01/28 17:49:36;;;;;;;13.10;9.30;;;;;;;5.69;47.45;100989.50;10434979;28;20247;-65
2024/01/28 17:54:38;;;;;;;12.90;8.80;;;;;;;5.67;47.38;100965.72;10433593;28;20243;-65
2024/01/28 17:59:40;;;;;;;10.90;9.17;;;;;;;5.42;47.30;101009.28;10418540;28;20245;-67
2024/01/28 18:04:42;;;;;;;15.37;9.83;;;;;;;5.51;47.48;100974.00;10390706;28;20244;-67
2024/01/28 18:09:43;;;;;;;10.43;8.90;;;;;;;5.54;47.45;100954.34;10391052;28;20247;-65
2024/01/28 18:14:45;;;;;;;9.30;8.23;;;;;;;5.57;47.79;100879.75;10393886;28;20228;-65
2024/01/28 18:19:47;;;;;;;9.93;8.93;;;;;;;5.36;47.72;100937.25;10391095;28;20319;-64
2024/01/28 18:24:48;;;;;;;13.70;9.47;;;;;;;5.07;48.05;101004.06;10387571;28;20232;-66
2024/01/28 18:29:52;;;;;;;12.10;10.57;;;;;;;5.72;47.42;100852.94;10393816;28;20235;-67
2024/01/28 18:34:54;;;;;;;11.33;9.60;;;;;;;6.15;46.53;100834.25;10400527;28;20260;-68
2024/01/28 18:39:57;;;;;;;12.27;10.10;;;;;;;6.02;46.39;100871.63;10393946;28;20286;-67
2024/01/28 18:44:59;;;;;;;9.43;8.00;;;;;;;5.82;46.63;100905.19;10432982;28;20253;-66
2024/01/28 18:50:01;;;;;;;10.83;8.43;;;;;;;5.62;46.68;100941.34;10437911;28;20240;-66
2024/01/28 18:55:03;;;;;;;9.93;8.87;;;;;;;5.74;46.42;100951.91;10434545;28;21085;-67
2024/01/28 19:00:06;;;;;;;10.30;8.37;;;;;;;5.00;47.41;101010.78;10433920;28;20236;-67
2024/01/28 19:05:08;;;;;;;10.13;9.10;;;;;;;5.62;46.92;100882.91;10425171;28;20735;-68
2024/01/28 19:10:10;;;;;;;11.73;8.60;;;;;;;5.85;46.31;100874.88;10425954;28;20266;-66
2024/01/28 19:15:11;;;;;;;11.90;8.73;;;;;;;6.86;44.23;100881.44;10423416;28;20509;-66
2024/01/28 19:20:19;;;;;;;16.10;8.17;;;;;;;6.40;44.41;101050.22;10432198;28;20224;-67
2024/01/28 19:25:21;;;;;;;12.40;9.17;;;;;;;5.99;44.92;101097.78;10397939;28;20563;-67
2024/01/28 19:30:22;;;;;;;12.13;9.87;;;;;;;6.78;44.20;100967.25;10396312;28;20278;-67
2024/01/28 19:35:24;;;;;;;14.17;11.23;;;;;;;6.91;44.18;100895.19;10394345;28;20228;-67
2024/01/28 19:40:26;;;;;;;14.20;10.90;;;;;;;8.16;41.71;100981.91;10403754;28;20241;-67
2024/01/28 19:45:28;;;;;;;17.33;13.33;;;;;;;7.56;42.28;101046.69;10432052;28;20648;-69
2024/01/28 19:50:30;;;;;;;21.33;16.47;;;;;;;6.83;43.31;101109.69;10419156;28;20236;-68
2024/01/28 19:55:31;;;;;;;14.30;12.17;;;;;;;7.61;42.70;100967.19;10436035;28;20231;-66
2024/01/28 20:00:33;;;;;;;14.53;11.13;;;;;;;7.79;42.12;100950.53;10382983;28;20233;-65
2024/01/28 20:05:37;;;;;;;11.50;8.90;;;;;;;6.75;44.15;101002.09;10393411;28;20253;-65
2024/01/28 20:10:39;;;;;;;8.80;7.90;;;;;;;7.73;42.11;100976.75;10376382;28;20232;-64
2024/01/28 20:15:40;;;;;;;12.63;8.53;;;;;;;7.12;42.80;101078.81;10433462;28;20270;-67
2024/01/28 20:20:43;;;;;;;8.77;7.77;;;;;;;7.82;41.86;100990.25;10396337;28;20414;-66
2024/01/28 20:25:46;;;;;;;9.00;8.10;;;;;;;7.38;42.24;101098.88;10389955;28;20323;-67
2024/01/28 20:30:50;;;;;;;14.37;8.80;;;;;;;7.53;41.99;101082.41;10390278;28;20273;-68
2024/01/28 20:35:52;;;;;;;10.70;7.20;;;;;;;7.12;42.41;101132.06;10388798;28;20309;-66
2024/01/28 20:40:54;;;;;;;10.27;8.57;;;;;;;7.28;42.50;101073.00;10390948;28;20601;-68
2024/01/28 20:45:57;;;;;;;13.30;8.60;;;;;;;8.03;41.48;101000.81;10389826;28;20236;-66
2024/01/28 20:50:58;;;;;;;22.63;18.80;;;;;;;7.10;42.80;101080.75;10390597;28;20246;-67
2024/01/28 20:56:02;;;;;;;18.80;16.50;;;;;;;7.80;41.83;100970.88;10390564;28;20235;-66
2024/01/28 21:01:03;;;;;;;17.47;15.67;;;;;;;6.95;43.02;101106.00;10394028;28;20332;-65
2024/01/28 21:06:05;;;;;;;16.40;13.60;;;;;;;7.28;42.71;100973.66;10391997;28;20252;-67
2024/01/28 21:11:10;;;;;;;12.77;9.97;;;;;;;6.83;43.36;101005.91;10392098;28;20240;-67
2024/01/28 21:16:12;;;;;;;13.10;9.57;;;;;;;6.59;43.62;101062.81;10394966;28;20235;-67
2024/01/28 21:21:14;;;;;;;10.70;9.30;;;;;;;6.08;44.37;101117.47;10394087;28;20256;-66
2024/01/28 21:26:20;;;;;;;14.07;10.03;;;;;;;5.86;45.29;101033.31;10399582;28;20229;-66
2024/01/28 21:31:22;;;;;;;13.40;9.57;;;;;;;5.31;46.02;101107.47;10440365;28;20266;-65
2024/01/28 21:36:23;;;;;;;13.27;10.03;;;;;;;5.21;45.84;101138.34;10441978;28;20808;-66
2024/01/28 21:41:25;;;;;;;14.73;10.33;;;;;;;5.76;45.89;100974.75;10437827;28;20439;-66
2024/01/28 21:46:27;;;;;;;11.50;9.70;;;;;;;7.36;43.10;100840.69;10431336;28;20238;-68
2024/01/28 21:51:28;;;;;;;11.90;9.13;;;;;;;7.54;42.34;100961.56;10378294;28;20264;-66
2024/01/28 21:56:30;;;;;;;13.40;10.40;;;;;;;7.88;42.13;100923.94;10397715;28;20695;-66
2024/01/28 22:01:32;;;;;;;11.53;9.93;;;;;;;7.48;42.73;100966.59;10431493;28;20224;-66
2024/01/28 22:06:34;;;;;;;11.50;9.00;;;;;;;7.18;43.55;101029.53;10427504;28;20302;-64
2024/01/28 22:11:36;;;;;;;13.20;10.10;;;;;;;6.35;44.35;101164.91;10390173;28;20236;-64
2024/01/28 22:16:38;;;;;;;15.07;10.17;;;;;;;5.56;46.79;101026.75;10390470;28;20260;-65
2024/01/28 22:21:39;;;;;;;14.17;10.60;;;;;;;5.16;48.03;101053.75;10391660;28;20236;-64
2024/01/28 22:26:41;;;;;;;16.23;11.83;;;;;;;6.52;45.51;100857.72;10394677;28;20224;-64
2024/01/28 22:31:43;;;;;;;14.60;11.20;;;;;;;6.79;44.05;101030.13;10435527;28;20725;-64
2024/01/28 22:36:47;;;;;;;14.60;11.03;;;;;;;6.71;44.38;101005.94;10437812;28;20831;-65
2024/01/28 22:41:49;;;;;;;17.80;13.43;;;;;;;6.60;44.66;100948.34;10435997;28;20250;-66
2024/01/28 22:46:51;;;;;;;27.00;22.97;;;;;;;5.98;45.21;101053.56;10437299;28;20243;-66
2024/01/28 22:51:53;;;;;;;21.03;16.27;;;;;;;7.28;43.64;100904.44;10435761;28;20293;-66
2024/01/28 22:56:55;;;;;;;21.30;15.33;;;;;;;6.17;45.46;100972.34;10437103;28;20944;-66
2024/01/28 23:01:59;;;;;;;17.83;14.17;;;;;;;6.83;43.94;100966.84;10435254;28;20263;-66
2024/01/28 23:07:01;;;;;;;15.37;13.20;;;;;;;4.39;48.58;101145.19;10436836;28;20552;-67
2024/01/28 23:12:03;;;;;;;19.97;15.03;;;;;;;5.63;46.92;100982.84;10433341;28;20235;-67
2024/01/28 23:17:05;;;;;;;16.67;13.07;;;;;;;5.40;46.61;101061.66;10419817;28;20252;-67